sensor_id;sensor_type;location;lat;lon;timestamp;P1;durP1;ratioP1;P2;durP2;ratioP2
6727;SDS011;3401;52.504;13.430;2022-08-01T00:01:13;1007.33;;;884.27;;
6727;SDS011;3401;52.504;13.430;2022-08-01T00:03:42;1013.33;;;888.97;;
6727;SDS011;3401;52.504;13.430;2022-08-01T00:06:10;1014.97;;;898.37;;
6727;SDS011;3401;52.504;13.430;2022-08-01T00:08:38;1015.27;;;893.17;;
6727;SDS011;3401;52.504;13.430;2022-08-01T00:11:05;1021.97;;;907.87;;
6727;SDS011;3401;52.504;13.430;2022-08-01T00:13:35;1005.93;;;881.77;;
6727;SDS011;3401;52.504;13.430;2022-08-01T00:16:03;1003.47;;;875.30;;
6727;SDS011;3401;52.504;13.430;2022-08-01T00:18:31;1004.83;;;879.37;;
6727;SDS011;3401;52.504;13.430;2022-08-01T00:21:03;1006.83;;;883.27;;
6727;SDS011;3401;52.504;13.430;2022-08-01T00:23:31;1002.10;;;879.43;;
6727;SDS011;3401;52.504;13.430;2022-08-01T00:25:59;1005.63;;;880.03;;
6727;SDS011;3401;52.504;13.430;2022-08-01T00:28:29;1010.80;;;890.27;;
6727;SDS011;3401;52.504;13.430;2022-08-01T00:30:57;994.40;;;858.50;;
6727;SDS011;3401;52.504;13.430;2022-08-01T00:33:29;996.80;;;857.33;;
6727;SDS011;3401;52.504;13.430;2022-08-01T00:35:56;1002.97;;;867.37;;
6727;SDS011;3401;52.504;13.430;2022-08-01T00:38:31;996.83;;;859.47;;
6727;SDS011;3401;52.504;13.430;2022-08-01T00:40:59;1004.07;;;878.17;;
6727;SDS011;3401;52.504;13.430;2022-08-01T00:43:29;1003.40;;;880.00;;
6727;SDS011;3401;52.504;13.430;2022-08-01T00:45:57;998.97;;;866.03;;
6727;SDS011;3401;52.504;13.430;2022-08-01T00:48:29;1010.17;;;881.50;;
6727;SDS011;3401;52.504;13.430;2022-08-01T00:50:57;999.47;;;870.60;;
6727;SDS011;3401;52.504;13.430;2022-08-01T00:53:25;1004.07;;;883.13;;
6727;SDS011;3401;52.504;13.430;2022-08-01T00:56:14;1010.53;;;887.00;;
6727;SDS011;3401;52.504;13.430;2022-08-01T00:58:42;1006.17;;;872.47;;
6727;SDS011;3401;52.504;13.430;2022-08-01T01:01:11;1003.07;;;871.97;;
6727;SDS011;3401;52.504;13.430;2022-08-01T01:03:39;1004.33;;;879.00;;
6727;SDS011;3401;52.504;13.430;2022-08-01T01:06:29;1000.00;;;868.53;;
6727;SDS011;3401;52.504;13.430;2022-08-01T01:09:12;1004.43;;;868.53;;
6727;SDS011;3401;52.504;13.430;2022-08-01T01:11:48;997.80;;;854.60;;
6727;SDS011;3401;52.504;13.430;2022-08-01T01:14:23;1000.27;;;861.53;;
6727;SDS011;3401;52.504;13.430;2022-08-01T01:16:56;1006.70;;;879.60;;
6727;SDS011;3401;52.504;13.430;2022-08-01T01:19:28;1004.37;;;875.47;;
6727;SDS011;3401;52.504;13.430;2022-08-01T01:22:04;1016.93;;;901.67;;
6727;SDS011;3401;52.504;13.430;2022-08-01T01:24:44;1005.60;;;865.63;;
6727;SDS011;3401;52.504;13.430;2022-08-01T01:27:17;1005.70;;;875.00;;
6727;SDS011;3401;52.504;13.430;2022-08-01T01:29:51;1009.40;;;885.53;;
6727;SDS011;3401;52.504;13.430;2022-08-01T01:32:27;1008.20;;;874.53;;
6727;SDS011;3401;52.504;13.430;2022-08-01T01:35:02;1004.40;;;863.27;;
6727;SDS011;3401;52.504;13.430;2022-08-01T01:37:33;1003.20;;;855.27;;
6727;SDS011;3401;52.504;13.430;2022-08-01T01:40:05;1002.33;;;861.00;;
6727;SDS011;3401;52.504;13.430;2022-08-01T01:42:37;993.80;;;835.80;;
6727;SDS011;3401;52.504;13.430;2022-08-01T01:45:07;993.10;;;839.83;;
6727;SDS011;3401;52.504;13.430;2022-08-01T01:47:36;999.20;;;854.30;;
6727;SDS011;3401;52.504;13.430;2022-08-01T01:50:07;992.97;;;836.70;;
6727;SDS011;3401;52.504;13.430;2022-08-01T01:52:36;991.07;;;828.60;;
6727;SDS011;3401;52.504;13.430;2022-08-01T01:55:06;981.57;;;804.07;;
6727;SDS011;3401;52.504;13.430;2022-08-01T01:57:35;994.70;;;846.40;;
6727;SDS011;3401;52.504;13.430;2022-08-01T02:00:06;998.23;;;844.03;;
6727;SDS011;3401;52.504;13.430;2022-08-01T02:02:36;998.33;;;843.57;;
6727;SDS011;3401;52.504;13.430;2022-08-01T02:05:05;985.77;;;819.97;;
6727;SDS011;3401;52.504;13.430;2022-08-01T02:07:33;982.47;;;809.93;;
6727;SDS011;3401;52.504;13.430;2022-08-01T02:10:03;990.47;;;830.10;;
6727;SDS011;3401;52.504;13.430;2022-08-01T02:12:33;986.33;;;817.67;;
6727;SDS011;3401;52.504;13.430;2022-08-01T02:15:03;992.37;;;831.93;;
6727;SDS011;3401;52.504;13.430;2022-08-01T02:17:33;992.13;;;833.63;;
6727;SDS011;3401;52.504;13.430;2022-08-01T02:20:05;983.83;;;810.97;;
6727;SDS011;3401;52.504;13.430;2022-08-01T02:22:36;991.60;;;825.47;;
6727;SDS011;3401;52.504;13.430;2022-08-01T02:25:10;990.67;;;827.43;;
6727;SDS011;3401;52.504;13.430;2022-08-01T02:27:41;989.87;;;825.23;;
6727;SDS011;3401;52.504;13.430;2022-08-01T02:30:12;991.90;;;830.00;;
6727;SDS011;3401;52.504;13.430;2022-08-01T02:32:46;983.87;;;812.50;;
6727;SDS011;3401;52.504;13.430;2022-08-01T02:35:18;991.30;;;824.80;;
6727;SDS011;3401;52.504;13.430;2022-08-01T02:37:47;982.37;;;806.63;;
6727;SDS011;3401;52.504;13.430;2022-08-01T02:40:16;986.83;;;809.27;;
6727;SDS011;3401;52.504;13.430;2022-08-01T02:42:46;975.73;;;782.50;;
6727;SDS011;3401;52.504;13.430;2022-08-01T02:45:16;981.93;;;807.67;;
6727;SDS011;3401;52.504;13.430;2022-08-01T02:47:46;992.67;;;827.47;;
6727;SDS011;3401;52.504;13.430;2022-08-01T02:50:15;994.20;;;831.23;;
6727;SDS011;3401;52.504;13.430;2022-08-01T02:52:44;972.47;;;780.33;;
6727;SDS011;3401;52.504;13.430;2022-08-01T02:55:14;978.77;;;798.13;;
6727;SDS011;3401;52.504;13.430;2022-08-01T02:57:43;984.20;;;806.83;;
6727;SDS011;3401;52.504;13.430;2022-08-01T03:00:18;987.57;;;812.70;;
6727;SDS011;3401;52.504;13.430;2022-08-01T03:02:51;995.20;;;839.10;;
6727;SDS011;3401;52.504;13.430;2022-08-01T03:05:21;988.30;;;816.17;;
6727;SDS011;3401;52.504;13.430;2022-08-01T03:07:50;991.47;;;828.40;;
6727;SDS011;3401;52.504;13.430;2022-08-01T03:10:19;982.87;;;806.17;;
6727;SDS011;3401;52.504;13.430;2022-08-01T03:12:50;987.47;;;811.67;;
6727;SDS011;3401;52.504;13.430;2022-08-01T03:15:18;984.77;;;812.67;;
6727;SDS011;3401;52.504;13.430;2022-08-01T03:17:46;980.73;;;789.83;;
6727;SDS011;3401;52.504;13.430;2022-08-01T03:20:17;992.80;;;821.23;;
6727;SDS011;3401;52.504;13.430;2022-08-01T03:22:46;989.00;;;800.20;;
6727;SDS011;3401;52.504;13.430;2022-08-01T03:25:15;991.70;;;823.30;;
6727;SDS011;3401;52.504;13.430;2022-08-01T03:27:45;1004.57;;;846.40;;
6727;SDS011;3401;52.504;13.430;2022-08-01T03:30:15;996.97;;;841.27;;
6727;SDS011;3401;52.504;13.430;2022-08-01T03:32:43;991.40;;;823.40;;
6727;SDS011;3401;52.504;13.430;2022-08-01T03:35:12;987.70;;;820.27;;
6727;SDS011;3401;52.504;13.430;2022-08-01T03:37:42;982.60;;;800.37;;
6727;SDS011;3401;52.504;13.430;2022-08-01T03:40:35;983.67;;;798.83;;
6727;SDS011;3401;52.504;13.430;2022-08-01T03:43:05;987.63;;;813.90;;
6727;SDS011;3401;52.504;13.430;2022-08-01T03:45:35;981.53;;;799.93;;
6727;SDS011;3401;52.504;13.430;2022-08-01T03:48:05;990.80;;;824.47;;
6727;SDS011;3401;52.504;13.430;2022-08-01T03:50:36;988.53;;;823.70;;
6727;SDS011;3401;52.504;13.430;2022-08-01T03:53:08;985.80;;;815.20;;
6727;SDS011;3401;52.504;13.430;2022-08-01T03:55:38;983.97;;;815.27;;
6727;SDS011;3401;52.504;13.430;2022-08-01T03:58:06;981.60;;;800.53;;
6727;SDS011;3401;52.504;13.430;2022-08-01T04:00:35;988.30;;;814.93;;
6727;SDS011;3401;52.504;13.430;2022-08-01T04:03:07;988.90;;;820.00;;
6727;SDS011;3401;52.504;13.430;2022-08-01T04:05:36;991.07;;;821.83;;
6727;SDS011;3401;52.504;13.430;2022-08-01T04:08:04;979.87;;;799.33;;
6727;SDS011;3401;52.504;13.430;2022-08-01T04:10:33;983.07;;;808.73;;
6727;SDS011;3401;52.504;13.430;2022-08-01T04:13:01;1001.43;;;827.70;;
6727;SDS011;3401;52.504;13.430;2022-08-01T04:15:30;993.97;;;827.00;;
6727;SDS011;3401;52.504;13.430;2022-08-01T04:17:58;987.07;;;818.20;;
6727;SDS011;3401;52.504;13.430;2022-08-01T04:20:25;990.57;;;818.93;;
6727;SDS011;3401;52.504;13.430;2022-08-01T04:22:54;991.63;;;827.97;;
6727;SDS011;3401;52.504;13.430;2022-08-01T04:25:23;983.83;;;808.03;;
6727;SDS011;3401;52.504;13.430;2022-08-01T04:27:55;981.20;;;802.03;;
6727;SDS011;3401;52.504;13.430;2022-08-01T04:30:25;983.97;;;804.40;;
6727;SDS011;3401;52.504;13.430;2022-08-01T04:32:55;977.57;;;786.10;;
6727;SDS011;3401;52.504;13.430;2022-08-01T04:35:23;970.47;;;766.73;;
6727;SDS011;3401;52.504;13.430;2022-08-01T04:38:12;963.90;;;751.97;;
6727;SDS011;3401;52.504;13.430;2022-08-01T04:40:43;978.77;;;790.90;;
6727;SDS011;3401;52.504;13.430;2022-08-01T04:43:13;977.27;;;793.33;;
6727;SDS011;3401;52.504;13.430;2022-08-01T04:45:42;991.43;;;807.87;;
6727;SDS011;3401;52.504;13.430;2022-08-01T04:48:11;994.20;;;810.93;;
6727;SDS011;3401;52.504;13.430;2022-08-01T04:50:40;993.37;;;820.50;;
6727;SDS011;3401;52.504;13.430;2022-08-01T04:53:11;991.77;;;826.50;;
6727;SDS011;3401;52.504;13.430;2022-08-01T04:55:40;987.10;;;818.00;;
6727;SDS011;3401;52.504;13.430;2022-08-01T04:58:08;990.37;;;806.67;;
6727;SDS011;3401;52.504;13.430;2022-08-01T05:00:43;990.70;;;814.17;;
6727;SDS011;3401;52.504;13.430;2022-08-01T05:03:11;993.97;;;822.67;;
6727;SDS011;3401;52.504;13.430;2022-08-01T05:05:39;988.40;;;812.67;;
6727;SDS011;3401;52.504;13.430;2022-08-01T05:08:07;998.17;;;828.93;;
6727;SDS011;3401;52.504;13.430;2022-08-01T05:10:35;978.03;;;796.00;;
6727;SDS011;3401;52.504;13.430;2022-08-01T05:13:02;987.47;;;802.90;;
6727;SDS011;3401;52.504;13.430;2022-08-01T05:15:30;1001.93;;;839.10;;
6727;SDS011;3401;52.504;13.430;2022-08-01T05:18:00;989.37;;;814.40;;
6727;SDS011;3401;52.504;13.430;2022-08-01T05:20:28;994.53;;;824.43;;
6727;SDS011;3401;52.504;13.430;2022-08-01T05:22:56;988.63;;;811.90;;
6727;SDS011;3401;52.504;13.430;2022-08-01T05:25:24;990.77;;;809.87;;
6727;SDS011;3401;52.504;13.430;2022-08-01T05:28:12;990.07;;;808.57;;
6727;SDS011;3401;52.504;13.430;2022-08-01T05:30:44;1007.77;;;854.53;;
6727;SDS011;3401;52.504;13.430;2022-08-01T05:33:13;1008.00;;;846.40;;
6727;SDS011;3401;52.504;13.430;2022-08-01T05:35:41;1004.80;;;846.13;;
6727;SDS011;3401;52.504;13.430;2022-08-01T05:38:14;985.77;;;813.37;;
6727;SDS011;3401;52.504;13.430;2022-08-01T05:40:42;981.47;;;784.17;;
6727;SDS011;3401;52.504;13.430;2022-08-01T05:43:10;992.93;;;820.50;;
6727;SDS011;3401;52.504;13.430;2022-08-01T05:45:38;982.43;;;797.67;;
6727;SDS011;3401;52.504;13.430;2022-08-01T05:48:07;990.37;;;813.60;;
6727;SDS011;3401;52.504;13.430;2022-08-01T05:50:36;996.40;;;831.10;;
6727;SDS011;3401;52.504;13.430;2022-08-01T05:53:04;984.87;;;799.10;;
6727;SDS011;3401;52.504;13.430;2022-08-01T05:55:32;987.37;;;803.17;;
6727;SDS011;3401;52.504;13.430;2022-08-01T05:58:00;991.47;;;830.93;;
6727;SDS011;3401;52.504;13.430;2022-08-01T06:00:28;987.73;;;809.67;;
6727;SDS011;3401;52.504;13.430;2022-08-01T06:02:56;982.77;;;804.13;;
6727;SDS011;3401;52.504;13.430;2022-08-01T06:05:24;974.30;;;782.63;;
6727;SDS011;3401;52.504;13.430;2022-08-01T06:07:53;990.90;;;826.77;;
6727;SDS011;3401;52.504;13.430;2022-08-01T06:10:21;991.80;;;824.57;;
6727;SDS011;3401;52.504;13.430;2022-08-01T06:12:49;993.43;;;831.37;;
6727;SDS011;3401;52.504;13.430;2022-08-01T06:15:17;993.03;;;823.73;;
6727;SDS011;3401;52.504;13.430;2022-08-01T06:17:45;998.80;;;845.50;;
6727;SDS011;3401;52.504;13.430;2022-08-01T06:20:13;1006.07;;;854.63;;
6727;SDS011;3401;52.504;13.430;2022-08-01T06:22:41;995.60;;;832.70;;
6727;SDS011;3401;52.504;13.430;2022-08-01T06:25:19;1003.07;;;851.70;;
6727;SDS011;3401;52.504;13.430;2022-08-01T06:27:47;1007.27;;;857.63;;
6727;SDS011;3401;52.504;13.430;2022-08-01T06:30:15;993.93;;;836.97;;
6727;SDS011;3401;52.504;13.430;2022-08-01T06:32:43;980.33;;;802.37;;
6727;SDS011;3401;52.504;13.430;2022-08-01T06:35:12;985.10;;;811.07;;
6727;SDS011;3401;52.504;13.430;2022-08-01T06:37:39;994.40;;;836.13;;
6727;SDS011;3401;52.504;13.430;2022-08-01T06:40:09;993.33;;;820.83;;
6727;SDS011;3401;52.504;13.430;2022-08-01T06:42:44;983.17;;;807.70;;
6727;SDS011;3401;52.504;13.430;2022-08-01T06:45:12;987.80;;;820.73;;
6727;SDS011;3401;52.504;13.430;2022-08-01T06:47:41;1005.23;;;823.00;;
6727;SDS011;3401;52.504;13.430;2022-08-01T06:50:14;983.13;;;802.77;;
6727;SDS011;3401;52.504;13.430;2022-08-01T06:52:41;985.13;;;802.53;;
6727;SDS011;3401;52.504;13.430;2022-08-01T06:55:10;991.23;;;822.87;;
6727;SDS011;3401;52.504;13.430;2022-08-01T06:57:45;1001.33;;;843.80;;
6727;SDS011;3401;52.504;13.430;2022-08-01T07:00:14;995.07;;;826.67;;
6727;SDS011;3401;52.504;13.430;2022-08-01T07:02:45;995.27;;;829.57;;
6727;SDS011;3401;52.504;13.430;2022-08-01T07:05:13;1006.30;;;825.47;;
6727;SDS011;3401;52.504;13.430;2022-08-01T07:07:41;998.17;;;839.87;;
6727;SDS011;3401;52.504;13.430;2022-08-01T07:10:09;1003.13;;;849.43;;
6727;SDS011;3401;52.504;13.430;2022-08-01T07:12:37;1022.45;;;808.20;;
6727;SDS011;3401;52.504;13.430;2022-08-01T07:15:09;1010.77;;;868.50;;
6727;SDS011;3401;52.504;13.430;2022-08-01T07:17:37;1005.80;;;853.53;;
6727;SDS011;3401;52.504;13.430;2022-08-01T07:20:06;1007.03;;;867.57;;
6727;SDS011;3401;52.504;13.430;2022-08-01T07:22:35;1007.33;;;866.57;;
6727;SDS011;3401;52.504;13.430;2022-08-01T07:25:04;1006.43;;;865.40;;
6727;SDS011;3401;52.504;13.430;2022-08-01T07:27:33;1002.73;;;853.00;;
6727;SDS011;3401;52.504;13.430;2022-08-01T07:30:01;1013.57;;;885.63;;
6727;SDS011;3401;52.504;13.430;2022-08-01T07:32:31;1013.73;;;878.50;;
6727;SDS011;3401;52.504;13.430;2022-08-01T07:35:01;998.13;;;845.33;;
6727;SDS011;3401;52.504;13.430;2022-08-01T07:37:29;997.07;;;848.90;;
6727;SDS011;3401;52.504;13.430;2022-08-01T07:40:14;1001.33;;;849.53;;
6727;SDS011;3401;52.504;13.430;2022-08-01T07:42:44;996.20;;;841.73;;
6727;SDS011;3401;52.504;13.430;2022-08-01T07:45:12;988.00;;;826.27;;
6727;SDS011;3401;52.504;13.430;2022-08-01T07:47:42;1000.70;;;842.10;;
6727;SDS011;3401;52.504;13.430;2022-08-01T07:50:10;999.87;;;845.63;;
6727;SDS011;3401;52.504;13.430;2022-08-01T07:52:38;1001.93;;;854.83;;
6727;SDS011;3401;52.504;13.430;2022-08-01T07:55:07;1017.07;;;884.60;;
6727;SDS011;3401;52.504;13.430;2022-08-01T07:57:36;1024.83;;;900.63;;
6727;SDS011;3401;52.504;13.430;2022-08-01T08:00:04;1020.83;;;900.63;;
6727;SDS011;3401;52.504;13.430;2022-08-01T08:02:34;1020.70;;;888.97;;
6727;SDS011;3401;52.504;13.430;2022-08-01T08:05:04;1004.37;;;860.50;;
6727;SDS011;3401;52.504;13.430;2022-08-01T08:07:33;1004.87;;;863.80;;
6727;SDS011;3401;52.504;13.430;2022-08-01T08:10:01;1011.27;;;872.43;;
6727;SDS011;3401;52.504;13.430;2022-08-01T08:12:30;1007.63;;;864.33;;
6727;SDS011;3401;52.504;13.430;2022-08-01T08:14:57;1009.37;;;874.80;;
6727;SDS011;3401;52.504;13.430;2022-08-01T08:17:27;1006.17;;;867.50;;
6727;SDS011;3401;52.504;13.430;2022-08-01T08:20:03;1004.73;;;857.10;;
6727;SDS011;3401;52.504;13.430;2022-08-01T08:22:34;1011.97;;;870.40;;
6727;SDS011;3401;52.504;13.430;2022-08-01T08:25:03;1005.07;;;856.77;;
6727;SDS011;3401;52.504;13.430;2022-08-01T08:27:33;997.43;;;850.37;;
6727;SDS011;3401;52.504;13.430;2022-08-01T08:30:03;994.83;;;837.20;;
6727;SDS011;3401;52.504;13.430;2022-08-01T08:32:33;1000.37;;;850.07;;
6727;SDS011;3401;52.504;13.430;2022-08-01T08:35:02;996.67;;;847.30;;
6727;SDS011;3401;52.504;13.430;2022-08-01T08:37:32;1006.23;;;860.10;;
6727;SDS011;3401;52.504;13.430;2022-08-01T08:40:08;1006.73;;;858.27;;
6727;SDS011;3401;52.504;13.430;2022-08-01T08:42:38;1001.57;;;846.17;;
6727;SDS011;3401;52.504;13.430;2022-08-01T08:45:07;1012.30;;;874.27;;
6727;SDS011;3401;52.504;13.430;2022-08-01T08:47:37;1018.13;;;883.87;;
6727;SDS011;3401;52.504;13.430;2022-08-01T08:50:07;1033.50;;;918.20;;
6727;SDS011;3401;52.504;13.430;2022-08-01T08:52:35;1023.13;;;899.03;;
6727;SDS011;3401;52.504;13.430;2022-08-01T08:55:06;1033.53;;;914.87;;
6727;SDS011;3401;52.504;13.430;2022-08-01T08:57:35;1051.53;;;935.93;;
6727;SDS011;3401;52.504;13.430;2022-08-01T09:00:03;1031.53;;;916.27;;
6727;SDS011;3401;52.504;13.430;2022-08-01T09:02:32;1021.90;;;903.40;;
6727;SDS011;3401;52.504;13.430;2022-08-01T09:05:00;1042.17;;;927.27;;
6727;SDS011;3401;52.504;13.430;2022-08-01T09:07:30;1027.50;;;912.70;;
6727;SDS011;3401;52.504;13.430;2022-08-01T09:09:58;1029.23;;;913.10;;
6727;SDS011;3401;52.504;13.430;2022-08-01T09:12:26;1029.83;;;915.60;;
6727;SDS011;3401;52.504;13.430;2022-08-01T09:14:54;1031.63;;;916.77;;
6727;SDS011;3401;52.504;13.430;2022-08-01T09:17:22;1012.47;;;884.17;;
6727;SDS011;3401;52.504;13.430;2022-08-01T09:19:51;1018.90;;;898.00;;
6727;SDS011;3401;52.504;13.430;2022-08-01T09:22:20;1012.73;;;887.33;;
6727;SDS011;3401;52.504;13.430;2022-08-01T09:25:02;1013.37;;;892.43;;
6727;SDS011;3401;52.504;13.430;2022-08-01T09:27:31;1005.30;;;874.30;;
6727;SDS011;3401;52.504;13.430;2022-08-01T09:30:07;1006.53;;;873.90;;
6727;SDS011;3401;52.504;13.430;2022-08-01T09:32:43;1007.47;;;879.80;;
6727;SDS011;3401;52.504;13.430;2022-08-01T09:35:24;1005.77;;;874.43;;
6727;SDS011;3401;52.504;13.430;2022-08-01T09:38:13;1017.23;;;899.37;;
6727;SDS011;3401;52.504;13.430;2022-08-01T09:40:50;1019.60;;;904.80;;
6727;SDS011;3401;52.504;13.430;2022-08-01T09:43:22;1020.67;;;897.97;;
6727;SDS011;3401;52.504;13.430;2022-08-01T09:45:50;1015.87;;;884.23;;
6727;SDS011;3401;52.504;13.430;2022-08-01T09:48:20;1021.50;;;907.00;;
6727;SDS011;3401;52.504;13.430;2022-08-01T09:50:54;1028.03;;;903.50;;
6727;SDS011;3401;52.504;13.430;2022-08-01T09:53:40;1012.07;;;882.90;;
6727;SDS011;3401;52.504;13.430;2022-08-01T09:56:19;1007.67;;;872.87;;
6727;SDS011;3401;52.504;13.430;2022-08-01T09:58:48;1010.80;;;883.60;;
6727;SDS011;3401;52.504;13.430;2022-08-01T10:01:24;1011.07;;;881.20;;
6727;SDS011;3401;52.504;13.430;2022-08-01T10:04:06;1014.97;;;891.07;;
6727;SDS011;3401;52.504;13.430;2022-08-01T10:06:37;1017.00;;;896.17;;
6727;SDS011;3401;52.504;13.430;2022-08-01T10:09:06;1019.07;;;898.90;;
6727;SDS011;3401;52.504;13.430;2022-08-01T10:11:37;1011.40;;;883.70;;
6727;SDS011;3401;52.504;13.430;2022-08-01T10:14:06;1029.47;;;906.20;;
6727;SDS011;3401;52.504;13.430;2022-08-01T10:16:35;1016.10;;;878.57;;
6727;SDS011;3401;52.504;13.430;2022-08-01T10:19:05;1024.13;;;888.23;;
6727;SDS011;3401;52.504;13.430;2022-08-01T10:21:40;1016.13;;;887.87;;
6727;SDS011;3401;52.504;13.430;2022-08-01T10:24:25;1003.13;;;864.07;;
6727;SDS011;3401;52.504;13.430;2022-08-01T10:27:03;952.40;;;597.55;;
6727;SDS011;3401;52.504;13.430;2022-08-01T10:29:37;948.47;;;487.27;;
6727;SDS011;3401;52.504;13.430;2022-08-01T10:32:26;973.35;;;743.63;;
6727;SDS011;3401;52.504;13.430;2022-08-01T10:34:54;995.20;;;851.10;;
6727;SDS011;3401;52.504;13.430;2022-08-01T10:37:23;981.03;;;783.87;;
6727;SDS011;3401;52.504;13.430;2022-08-01T10:39:52;1010.33;;;882.87;;
6727;SDS011;3401;52.504;13.430;2022-08-01T10:42:42;1002.80;;;875.23;;
6727;SDS011;3401;52.504;13.430;2022-08-01T10:45:12;999.47;;;862.17;;
6727;SDS011;3401;52.504;13.430;2022-08-01T10:47:42;1006.30;;;875.20;;
6727;SDS011;3401;52.504;13.430;2022-08-01T10:50:17;1002.63;;;875.70;;
6727;SDS011;3401;52.504;13.430;2022-08-01T10:53:07;1011.37;;;894.70;;
6727;SDS011;3401;52.504;13.430;2022-08-01T10:55:50;1001.97;;;873.87;;
6727;SDS011;3401;52.504;13.430;2022-08-01T10:58:23;1011.57;;;892.87;;
6727;SDS011;3401;52.504;13.430;2022-08-01T11:01:12;1017.03;;;899.03;;
6727;SDS011;3401;52.504;13.430;2022-08-01T11:04:02;1016.13;;;901.90;;
6727;SDS011;3401;52.504;13.430;2022-08-01T11:06:46;1011.10;;;889.23;;
6727;SDS011;3401;52.504;13.430;2022-08-01T11:09:21;1008.90;;;881.13;;
6727;SDS011;3401;52.504;13.430;2022-08-01T11:12:04;1013.00;;;891.37;;
6727;SDS011;3401;52.504;13.430;2022-08-01T11:17:56;1010.67;;;882.83;;
6727;SDS011;3401;52.504;13.430;2022-08-01T11:20:30;994.97;;;850.07;;
6727;SDS011;3401;52.504;13.430;2022-08-01T11:26:07;1010.13;;;886.40;;
6727;SDS011;3401;52.504;13.430;2022-08-01T11:28:36;1005.13;;;872.33;;
6727;SDS011;3401;52.504;13.430;2022-08-01T11:31:27;1007.97;;;880.00;;
6727;SDS011;3401;52.504;13.430;2022-08-01T11:34:03;997.67;;;864.97;;
6727;SDS011;3401;52.504;13.430;2022-08-01T11:36:31;1011.87;;;887.67;;
6727;SDS011;3401;52.504;13.430;2022-08-01T11:39:19;1005.67;;;879.93;;
6727;SDS011;3401;52.504;13.430;2022-08-01T11:41:47;999.27;;;870.97;;
6727;SDS011;3401;52.504;13.430;2022-08-01T11:44:16;1005.17;;;873.60;;
6727;SDS011;3401;52.504;13.430;2022-08-01T11:46:57;1000.93;;;870.27;;
6727;SDS011;3401;52.504;13.430;2022-08-01T11:49:45;998.27;;;861.90;;
6727;SDS011;3401;52.504;13.430;2022-08-01T11:52:16;998.13;;;856.27;;
6727;SDS011;3401;52.504;13.430;2022-08-01T11:54:46;990.47;;;835.17;;
6727;SDS011;3401;52.504;13.430;2022-08-01T11:57:18;988.03;;;832.63;;
6727;SDS011;3401;52.504;13.430;2022-08-01T11:59:49;990.77;;;839.43;;
6727;SDS011;3401;52.504;13.430;2022-08-01T12:02:39;993.87;;;848.63;;
6727;SDS011;3401;52.504;13.430;2022-08-01T12:05:08;978.00;;;814.53;;
6727;SDS011;3401;52.504;13.430;2022-08-01T12:07:39;997.00;;;846.57;;
6727;SDS011;3401;52.504;13.430;2022-08-01T12:10:08;1002.70;;;867.87;;
6727;SDS011;3401;52.504;13.430;2022-08-01T12:12:43;1023.20;;;909.50;;
6727;SDS011;3401;52.504;13.430;2022-08-01T12:15:12;1023.63;;;910.20;;
6727;SDS011;3401;52.504;13.430;2022-08-01T12:17:42;1043.00;;;928.60;;
6727;SDS011;3401;52.504;13.430;2022-08-01T12:20:25;1027.57;;;913.67;;
6727;SDS011;3401;52.504;13.430;2022-08-01T12:22:56;1044.10;;;930.03;;
6727;SDS011;3401;52.504;13.430;2022-08-01T12:25:24;1056.93;;;941.53;;
6727;SDS011;3401;52.504;13.430;2022-08-01T12:27:52;1028.43;;;912.97;;
6727;SDS011;3401;52.504;13.430;2022-08-01T12:30:22;1037.67;;;923.37;;
6727;SDS011;3401;52.504;13.430;2022-08-01T12:32:52;1027.70;;;911.77;;
6727;SDS011;3401;52.504;13.430;2022-08-01T12:35:21;1023.20;;;905.00;;
6727;SDS011;3401;52.504;13.430;2022-08-01T12:37:54;1033.50;;;919.53;;
6727;SDS011;3401;52.504;13.430;2022-08-01T12:40:23;1025.87;;;908.57;;
6727;SDS011;3401;52.504;13.430;2022-08-01T12:42:53;1046.60;;;931.83;;
6727;SDS011;3401;52.504;13.430;2022-08-01T12:45:23;1046.90;;;932.20;;
6727;SDS011;3401;52.504;13.430;2022-08-01T12:47:53;1043.60;;;928.83;;
6727;SDS011;3401;52.504;13.430;2022-08-01T12:50:24;1048.67;;;933.70;;
6727;SDS011;3401;52.504;13.430;2022-08-01T12:52:54;1037.90;;;923.33;;
6727;SDS011;3401;52.504;13.430;2022-08-01T12:55:22;1053.13;;;937.93;;
6727;SDS011;3401;52.504;13.430;2022-08-01T12:58:03;1049.37;;;934.50;;
6727;SDS011;3401;52.504;13.430;2022-08-01T13:00:32;1083.47;;;966.23;;
6727;SDS011;3401;52.504;13.430;2022-08-01T13:03:02;1090.27;;;972.60;;
6727;SDS011;3401;52.504;13.430;2022-08-01T13:05:41;1098.80;;;980.40;;
6727;SDS011;3401;52.504;13.430;2022-08-01T13:08:10;1092.87;;;975.30;;
6727;SDS011;3401;52.504;13.430;2022-08-01T13:10:39;1077.90;;;961.43;;
6727;SDS011;3401;52.504;13.430;2022-08-01T13:13:07;1090.53;;;973.20;;
6727;SDS011;3401;52.504;13.430;2022-08-01T13:15:47;1112.57;;;993.27;;
6727;SDS011;3401;52.504;13.430;2022-08-01T13:18:25;1087.80;;;970.60;;
6727;SDS011;3401;52.504;13.430;2022-08-01T13:21:07;1081.93;;;965.63;;
6727;SDS011;3401;52.504;13.430;2022-08-01T13:23:35;1086.10;;;969.93;;
6727;SDS011;3401;52.504;13.430;2022-08-01T13:26:37;1076.57;;;960.87;;
6727;SDS011;3401;52.504;13.430;2022-08-01T13:29:06;1063.83;;;948.77;;
6727;SDS011;3401;52.504;13.430;2022-08-01T13:31:34;1071.93;;;956.63;;
6727;SDS011;3401;52.504;13.430;2022-08-01T13:34:04;1050.87;;;936.97;;
6727;SDS011;3401;52.504;13.430;2022-08-01T13:36:32;1037.97;;;924.30;;
6727;SDS011;3401;52.504;13.430;2022-08-01T13:39:00;1025.57;;;912.57;;
6727;SDS011;3401;52.504;13.430;2022-08-01T13:41:46;1038.87;;;925.30;;
6727;SDS011;3401;52.504;13.430;2022-08-01T13:44:14;1032.57;;;919.47;;
6727;SDS011;3401;52.504;13.430;2022-08-01T13:46:42;1052.33;;;937.43;;
6727;SDS011;3401;52.504;13.430;2022-08-01T13:49:16;1065.87;;;950.80;;
6727;SDS011;3401;52.504;13.430;2022-08-01T13:51:45;1056.70;;;942.23;;
6727;SDS011;3401;52.504;13.430;2022-08-01T13:54:16;1069.03;;;953.97;;
6727;SDS011;3401;52.504;13.430;2022-08-01T13:56:44;1062.87;;;947.80;;
6727;SDS011;3401;52.504;13.430;2022-08-01T13:59:12;1062.67;;;947.90;;
6727;SDS011;3401;52.504;13.430;2022-08-01T14:01:40;1063.17;;;948.10;;
6727;SDS011;3401;52.504;13.430;2022-08-01T14:04:08;1060.10;;;945.43;;
6727;SDS011;3401;52.504;13.430;2022-08-01T14:06:37;1083.33;;;967.17;;
6727;SDS011;3401;52.504;13.430;2022-08-01T14:09:07;1065.57;;;950.60;;
6727;SDS011;3401;52.504;13.430;2022-08-01T14:11:43;1068.93;;;953.70;;
6727;SDS011;3401;52.504;13.430;2022-08-01T14:14:11;1063.83;;;948.23;;
6727;SDS011;3401;52.504;13.430;2022-08-01T14:16:39;1068.80;;;952.33;;
6727;SDS011;3401;52.504;13.430;2022-08-01T14:19:07;1111.87;;;992.00;;
6727;SDS011;3401;52.504;13.430;2022-08-01T14:21:35;1091.40;;;973.93;;
6727;SDS011;3401;52.504;13.430;2022-08-01T14:24:04;1103.40;;;985.30;;
6727;SDS011;3401;52.504;13.430;2022-08-01T14:26:33;1102.53;;;984.70;;
6727;SDS011;3401;52.504;13.430;2022-08-01T14:29:01;1117.83;;;996.80;;
6727;SDS011;3401;52.504;13.430;2022-08-01T14:31:29;1112.03;;;992.23;;